Time;durP1;ratioP1;P1;durP2;ratioP2;P2;SDS_P1;SDS_P2;PMS_P1;PMS_P2;Temp;Humidity;BMP_temperature;BMP_pressure;BME280_temperature;BME280_humidity;BME280_pressure;Samples;Min_cycle;Max_cycle;Signal;HPM_P1;HPM_P2
2021/12/24 00:00:37;;;;;;;7.68;3.75;;;2.00;99.90;;;;;;4919020;29;20032;-82
2021/12/24 00:03:03;;;;;;;9.05;4.00;;;2.10;99.90;;;;;;4934934;29;20374;-79
2021/12/24 00:05:30;;;;;;;9.50;4.68;;;2.10;99.90;;;;;;4916095;29;20493;-79
2021/12/24 00:07:55;;;;;;;9.30;6.00;;;2.30;99.90;;;;;;4935598;29;20058;-79
2021/12/24 00:10:21;;;;;;;13.43;4.43;;;2.30;99.90;;;;;;4934379;29;20036;-79
2021/12/24 00:12:56;;;;;;;4.90;3.47;;;2.30;99.90;;;;;;4931542;29;20032;-80
2021/12/24 00:18:24;;;;;;;9.15;4.95;;;2.30;99.90;;;;;;4946488;29;20062;-78
2021/12/24 00:37:10;;;;;;;4.03;2.85;;;2.30;99.90;;;;;;4933256;29;20030;-81
2021/12/24 00:39:43;;;;;;;4.15;2.72;;;2.30;99.90;;;;;;4934304;29;20036;-80
2021/12/24 00:42:09;;;;;;;16.10;4.63;;;2.30;99.90;;;;;;4932764;29;20019;-79
2021/12/24 00:44:35;;;;;;;4.28;2.78;;;2.30;99.90;;;;;;4933822;29;20059;-81
2021/12/24 00:47:02;;;;;;;6.93;3.83;;;2.20;99.90;;;;;;4931911;29;20040;-80
2021/12/24 00:49:27;;;;;;;5.25;3.92;;;2.20;99.90;;;;;;4932402;29;20397;-79
2021/12/24 00:52:07;;;;;;;5.03;4.32;;;2.20;99.90;;;;;;4932742;29;20111;-78
2021/12/24 00:57:21;;;;;;;8.07;4.10;;;2.10;99.90;;;;;;4932454;29;20130;-81
2021/12/24 00:59:46;;;;;;;9.32;3.70;;;2.10;99.90;;;;;;4915157;29;20060;-78
2021/12/24 01:02:12;;;;;;;7.07;4.05;;;2.00;99.90;;;;;;4934171;29;20036;-80
2021/12/24 01:04:38;;;;;;;9.13;3.17;;;2.00;99.90;;;;;;4933728;29;20114;-81
2021/12/24 01:07:04;;;;;;;7.13;4.05;;;2.00;99.90;;;;;;4917147;29;20098;-82
2021/12/24 01:09:30;;;;;;;7.78;3.45;;;2.00;99.90;;;;;;4937918;29;20027;-81
2021/12/24 01:11:55;;;;;;;10.40;4.15;;;2.10;99.90;;;;;;4953960;29;20083;-83
2021/12/24 01:14:22;;;;;;;8.93;3.92;;;2.10;99.90;;;;;;4918696;29;20071;-82
2021/12/24 01:17:04;;;;;;;5.15;4.57;;;2.00;99.90;;;;;;4917109;29;20667;-79
2021/12/24 01:19:30;;;;;;;5.07;3.45;;;2.00;99.90;;;;;;4917183;29;20031;-80
2021/12/24 01:25:01;;;;;;;5.57;2.63;;;1.80;99.90;;;;;;4932819;29;20511;-79
2021/12/24 01:30:06;;;;;;;3.75;3.28;;;1.60;99.90;;;;;;4933485;29;20023;-78
2021/12/24 01:38:13;;;;;;;4.57;3.35;;;1.30;99.90;;;;;;4917946;29;20235;-79
2021/12/24 01:43:34;;;;;;;6.72;5.00;;;1.10;99.90;;;;;;4916687;29;20053;-77
2021/12/24 01:46:01;;;;;;;5.25;3.53;;;1.10;99.90;;;;;;4918311;29;20044;-79
2021/12/24 01:48:27;;;;;;;3.00;2.63;;;1.00;99.90;;;;;;4915475;29;20042;-80
2021/12/24 01:50:54;;;;;;;4.63;2.13;;;1.00;99.90;;;;;;4918171;29;20032;-80
2021/12/24 01:53:22;;;;;;;5.65;3.50;;;1.00;99.90;;;;;;4938007;29;20036;-81
2021/12/24 01:55:50;;;;;;;5.22;3.10;;;1.00;99.90;;;;;;4920227;29;20023;-82
2021/12/24 01:58:24;;;;;;;5.90;3.97;;;0.90;99.90;;;;;;4939055;29;20035;-79
2021/12/24 02:00:52;;;;;;;2.30;2.15;;;0.60;99.90;;;;;;4937319;29;20031;-79
2021/12/24 02:03:19;;;;;;;2.88;2.50;;;0.70;99.90;;;;;;4938166;29;20028;-81
2021/12/24 02:05:45;;;;;;;2.53;2.33;;;0.70;99.90;;;;;;4922472;29;20039;-75
2021/12/24 02:08:13;;;;;;;3.15;2.65;;;0.70;99.90;;;;;;4936643;29;20067;-81
2021/12/24 02:10:39;;;;;;;4.90;3.08;;;0.70;99.90;;;;;;4920163;29;20032;-80
2021/12/24 02:13:05;;;;;;;6.60;4.28;;;0.70;99.90;;;;;;4936430;29;20090;-82
2021/12/24 02:28:54;;;;;;;5.45;3.47;;;2.50;99.90;;;;;;4948264;29;20042;-79
2021/12/24 02:31:22;;;;;;;3.05;2.80;;;0.60;99.90;;;;;;4917325;29;20036;-79
2021/12/24 02:33:49;;;;;;;2.30;1.92;;;0.60;99.90;;;;;;4933889;29;20099;-79
2021/12/24 02:36:15;;;;;;;4.38;2.80;;;0.50;99.90;;;;;;4915339;29;20163;-79
2021/12/24 02:38:41;;;;;;;5.50;3.20;;;0.50;99.90;;;;;;4918874;29;20210;-80
2021/12/24 02:41:09;;;;;;;8.77;3.10;;;0.60;99.90;;;;;;4918197;29;20079;-79
2021/12/24 02:43:36;;;;;;;4.68;3.55;;;0.70;99.90;;;;;;4918881;29;20054;-79
2021/12/24 02:46:22;;;;;;;2.92;2.58;;;0.60;99.90;;;;;;4919556;29;20111;-80
2021/12/24 02:54:10;;;;;;;7.38;3.22;;;0.60;99.90;;;;;;4941866;29;20058;-81
2021/12/24 02:56:38;;;;;;;2.67;2.20;;;0.70;99.90;;;;;;4918332;29;20422;-81
2021/12/24 02:59:11;;;;;;;1.92;1.77;;;0.70;99.90;;;;;;4934957;29;20060;-80
2021/12/24 03:01:42;;;;;;;6.30;2.60;;;0.50;99.90;;;;;;4939716;29;20381;-76
2021/12/24 03:04:09;;;;;;;4.18;2.67;;;0.50;99.90;;;;;;4933525;29;20020;-79
2021/12/24 03:06:45;;;;;;;4.10;3.03;;;0.40;99.90;;;;;;4914169;29;20043;-78
2021/12/24 03:09:15;;;;;;;3.70;3.00;;;0.40;99.90;;;;;;4914994;29;20038;-78
2021/12/24 03:11:43;;;;;;;1.15;1.05;;;-0.20;99.90;;;;;;4914596;29;20059;-78
2021/12/24 03:14:15;;;;;;;1.67;1.55;;;0.30;99.90;;;;;;4916463;29;20470;-79
2021/12/24 03:16:43;;;;;;;2.35;2.00;;;;;;;;;;4914080;29;20067;-80
2021/12/24 03:19:11;;;;;;;1.40;1.30;;;0.30;99.90;;;;;;4913995;29;20066;-79
2021/12/24 03:21:49;;;;;;;2.10;1.58;;;;;;;;;;4913661;29;20126;-80
2021/12/24 03:26:47;;;;;;;2.78;2.05;;;0.70;99.90;;;;;;4931636;29;20043;-79
2021/12/24 03:29:16;;;;;;;2.10;1.95;;;0.80;99.90;;;;;;4932583;29;20031;-80
2021/12/24 03:31:43;;;;;;;2.83;2.10;;;0.50;99.90;;;;;;4915194;29;20176;-78
2021/12/24 03:34:12;;;;;;;3.17;1.95;;;0.50;99.90;;;;;;4930845;29;20784;-78
2021/12/24 03:36:38;;;;;;;;;;;0.50;99.90;;;;;;4932161;29;20184;-79
2021/12/24 03:39:06;;;;;;;2.83;2.15;;;0.40;99.90;;;;;;4932224;29;20023;-78
2021/12/24 03:41:31;;;;;;;2.38;1.58;;;0.40;99.90;;;;;;4915896;29;20034;-79
2021/12/24 03:43:57;;;;;;;1.60;1.50;;;0.20;99.90;;;;;;4916355;29;20023;-80
2021/12/24 03:46:32;;;;;;;2.45;1.45;;;0.20;99.90;;;;;;4915207;29;20036;-80
2021/12/24 03:49:03;;;;;;;7.00;1.52;;;0.10;99.90;;;;;;4932375;29;20023;-76
2021/12/24 03:51:45;;;;;;;2.50;2.15;;;0.10;99.90;;;;;;4919245;29;20031;-79
2021/12/24 03:56:56;;;;;;;2.88;2.20;;;0.30;99.90;;;;;;4938916;29;20034;-76
2021/12/24 03:59:21;;;;;;;3.63;2.05;;;0.40;99.90;;;;;;4919629;29;20031;-76
2021/12/24 04:01:47;;;;;;;4.32;2.50;;;0.30;99.90;;;;;;4936557;29;20016;-76
2021/12/24 04:04:13;;;;;;;2.72;1.08;;;0.20;99.90;;;;;;4919266;29;20035;-76
2021/12/24 04:06:39;;;;;;;1.92;1.45;;;0.10;99.90;;;;;;4918737;29;20087;-76
2021/12/24 04:09:06;;;;;;;4.05;2.33;;;0.00;99.90;;;;;;4936069;29;20119;-76
2021/12/24 04:11:33;;;;;;;1.85;1.67;;;-0.20;99.90;;;;;;4936995;29;20032;-76
2021/12/24 04:13:58;;;;;;;5.72;1.70;;;-0.20;99.90;;;;;;4938333;29;20106;-76
2021/12/24 04:16:24;;;;;;;1.45;1.30;;;-0.20;99.90;;;;;;4939256;29;20063;-76
2021/12/24 04:26:44;;;;;;;2.28;1.75;;;-0.10;99.90;;;;;;4939647;29;20095;-76
2021/12/24 04:29:11;;;;;;;3.05;1.98;;;-0.10;99.90;;;;;;4938706;29;20031;-76
2021/12/24 04:31:54;;;;;;;2.78;2.40;;;0.00;99.90;;;;;;4939339;29;20174;-76
2021/12/24 04:34:25;;;;;;;9.43;2.65;;;0.00;99.90;;;;;;4922858;29;20501;-76
2021/12/24 05:03:42;;;;;;;5.30;1.35;;;0.30;99.90;;;;;;4940119;29;20031;-76
2021/12/24 05:06:31;;;;;;;3.78;2.60;;;0.40;99.90;;;;;;4924484;29;20059;-78
2021/12/24 05:09:04;;;;;;;4.00;2.63;;;0.40;99.90;;;;;;4927320;29;20024;-77
2021/12/24 05:11:30;;;;;;;3.33;1.80;;;0.50;99.90;;;;;;4945597;29;20031;-76
2021/12/24 05:13:56;;;;;;;0.88;0.52;;;0.50;99.90;;;;;;4928877;29;20027;-77
2021/12/24 05:16:45;;;;;;;3.08;1.52;;;0.60;99.90;;;;;;4944628;29;20473;-77
2021/12/24 05:21:42;;;;;;;1.15;1.15;;;0.60;99.90;;;;;;4947537;29;20035;-77
2021/12/24 05:24:13;;;;;;;1.45;1.40;;;0.70;99.90;;;;;;4932611;29;20091;-77
2021/12/24 05:26:41;;;;;;;4.32;1.67;;;0.70;99.90;;;;;;4946130;29;20036;-76
2021/12/24 05:29:06;;;;;;;2.30;0.90;;;0.70;99.90;;;;;;4931071;29;20030;-76
2021/12/24 05:31:33;;;;;;;3.13;1.38;;;0.80;99.90;;;;;;4929313;29;20469;-76
2021/12/24 05:34:00;;;;;;;1.00;0.95;;;0.90;99.90;;;;;;4947107;29;20111;-77
2021/12/24 05:36:26;;;;;;;4.75;1.40;;;0.90;99.90;;;;;;4947164;29;20083;-77
2021/12/24 05:38:51;;;;;;;1.00;1.00;;;0.80;99.90;;;;;;4943116;29;20028;-76
2021/12/24 05:41:23;;;;;;;2.55;1.50;;;0.70;99.90;;;;;;4940934;29;20386;-76
2021/12/24 05:43:50;;;;;;;3.33;1.63;;;0.60;99.90;;;;;;4922939;29;20071;-76
2021/12/24 05:46:16;;;;;;;0.82;0.82;;;0.60;99.90;;;;;;4940433;29;20043;-77
2021/12/24 05:48:42;;;;;;;1.55;1.45;;;0.80;99.90;;;;;;4922727;29;20035;-76
2021/12/24 05:51:09;;;;;;;0.90;0.90;;;1.00;99.90;;;;;;4940144;29;20030;-77
2021/12/24 05:53:35;;;;;;;2.65;1.27;;;1.10;99.90;;;;;;4923203;29;20024;-76
2021/12/24 05:56:02;;;;;;;1.25;1.13;;;1.20;99.90;;;;;;4924051;29;20477;-76
2021/12/24 05:58:27;;;;;;;1.38;1.13;;;1.30;99.90;;;;;;4941491;29;20059;-76
2021/12/24 06:00:53;;;;;;;1.77;1.25;;;1.30;99.90;;;;;;4941210;29;20043;-76
2021/12/24 06:03:19;;;;;;;4.15;0.93;;;1.40;99.90;;;;;;4924361;29;20035;-76
2021/12/24 06:05:45;;;;;;;0.47;0.47;;;1.50;99.90;;;;;;4924973;29;20027;-76
2021/12/24 06:08:11;;;;;;;0.68;0.38;;;1.50;99.90;;;;;;4940062;29;20107;-76
2021/12/24 06:10:37;;;;;;;0.63;0.50;;;1.70;99.90;;;;;;4941428;29;20062;-76
2021/12/24 06:13:04;;;;;;;0.93;0.50;;;1.80;99.90;;;;;;4925138;29;20481;-77
2021/12/24 06:15:33;;;;;;;0.80;0.80;;;1.90;99.90;;;;;;4942286;29;20155;-76
2021/12/24 06:17:59;;;;;;;1.33;1.23;;;2.00;99.90;;;;;;4924012;29;20050;-76
2021/12/24 06:20:27;;;;;;;1.27;1.00;;;2.00;99.90;;;;;;4939914;29;20063;-76
2021/12/24 06:22:53;;;;;;;4.43;1.13;;;2.10;99.90;;;;;;4919299;29;20126;-77
2021/12/24 06:25:19;;;;;;;5.50;3.38;;;2.10;99.90;;;;;;4935054;29;20124;-77
2021/12/24 06:27:46;;;;;;;4.72;2.70;;;2.00;99.90;;;;;;4939676;29;20032;-76
2021/12/24 06:30:13;;;;;;;6.35;2.88;;;1.90;99.90;;;;;;4924091;29;20476;-76
2021/12/24 06:32:39;;;;;;;3.53;2.53;;;1.90;99.90;;;;;;4923116;29;20166;-76
2021/12/24 06:35:06;;;;;;;4.10;2.63;;;1.80;99.90;;;;;;4923258;29;20027;-76
2021/12/24 06:37:32;;;;;;;3.80;2.15;;;1.90;99.90;;;;;;4923662;29;20489;-76
2021/12/24 06:39:58;;;;;;;7.60;2.50;;;1.90;99.90;;;;;;4941573;29;20051;-76
2021/12/24 06:42:24;;;;;;;3.63;1.98;;;1.90;99.90;;;;;;4924065;29;20409;-76
2021/12/24 06:44:49;;;;;;;3.88;2.42;;;2.10;99.90;;;;;;4938836;29;20031;-76
2021/12/24 06:47:15;;;;;;;11.88;3.70;;;2.20;99.90;;;;;;4924385;29;20036;-76
2021/12/24 06:49:41;;;;;;;4.85;4.00;;;2.20;99.90;;;;;;4941054;29;20031;-76
2021/12/24 06:52:07;;;;;;;18.75;9.00;;;2.10;99.90;;;;;;4923500;29;20028;-76
2021/12/24 06:54:33;;;;;;;10.48;7.03;;;2.10;99.90;;;;;;4941541;29;20416;-76
2021/12/24 06:57:03;;;;;;;6.15;3.53;;;2.20;99.90;;;;;;4923057;29;20148;-76
2021/12/24 06:59:29;;;;;;;11.75;6.47;;;2.20;99.90;;;;;;4922696;29;20540;-76
2021/12/24 07:01:59;;;;;;;6.68;4.70;;;2.20;99.90;;;;;;4939093;29;20032;-76
2021/12/24 07:04:26;;;;;;;8.35;4.38;;;2.20;99.90;;;;;;4940202;29;20528;-76
2021/12/24 07:06:52;;;;;;;11.70;5.85;;;2.10;99.90;;;;;;4941554;29;20050;-76
2021/12/24 07:09:17;;;;;;;9.80;5.90;;;2.10;99.90;;;;;;4939494;29;20473;-76
2021/12/24 07:11:43;;;;;;;5.97;4.55;;;2.10;99.90;;;;;;4939904;29;20376;-76
2021/12/24 07:14:09;;;;;;;5.15;3.53;;;2.10;99.90;;;;;;4922992;29;20028;-76
2021/12/24 07:16:35;;;;;;;5.68;4.22;;;2.10;99.90;;;;;;4939183;29;20400;-76
2021/12/24 07:19:01;;;;;;;6.47;3.33;;;2.10;99.90;;;;;;4922585;29;20059;-77
2021/12/24 07:21:27;;;;;;;3.38;2.42;;;2.10;99.90;;;;;;4922037;29;20059;-76
2021/12/24 07:23:53;;;;;;;7.88;3.70;;;2.10;99.90;;;;;;4922254;29;20043;-76
2021/12/24 07:26:19;;;;;;;4.05;3.65;;;2.20;99.90;;;;;;4939560;29;20035;-76
2021/12/24 07:28:45;;;;;;;6.35;3.83;;;2.30;99.90;;;;;;4939059;29;20080;-76
2021/12/24 07:31:10;;;;;;;6.50;3.72;;;2.30;99.90;;;;;;4922408;29;20044;-76
2021/12/24 07:33:36;;;;;;;5.93;3.35;;;2.30;99.90;;;;;;4938731;29;20054;-77
2021/12/24 07:36:02;;;;;;;7.65;3.65;;;2.40;99.90;;;;;;4939805;29;20480;-76
2021/12/24 07:38:28;;;;;;;7.00;3.10;;;2.40;99.90;;;;;;4939603;29;20084;-76
2021/12/24 07:40:53;;;;;;;7.82;3.60;;;2.40;99.90;;;;;;4922474;29;20027;-76
2021/12/24 07:43:19;;;;;;;2.97;2.63;;;2.30;99.90;;;;;;4921867;29;20108;-76
2021/12/24 07:45:46;;;;;;;5.55;3.47;;;2.30;99.90;;;;;;4940782;29;20051;-76
2021/12/24 07:48:15;;;;;;;9.77;3.55;;;2.30;99.90;;;;;;4924177;29;20048;-76
2021/12/24 07:53:14;;;;;;;7.15;3.53;;;2.40;99.90;;;;;;4937580;29;20020;-76
2021/12/24 07:55:41;;;;;;;5.35;3.97;;;2.40;99.90;;;;;;4920781;29;20023;-76
2021/12/24 07:58:07;;;;;;;9.52;4.10;;;2.50;99.90;;;;;;4938103;29;20036;-76
2021/12/24 08:00:37;;;;;;;7.97;3.63;;;2.50;99.90;;;;;;4920566;29;20043;-76
2021/12/24 08:03:04;;;;;;;2.85;2.63;;;2.50;99.90;;;;;;4939118;29;20059;-77
2021/12/24 08:05:32;;;;;;;7.43;3.30;;;2.60;99.90;;;;;;4938440;29;20024;-76
2021/12/24 08:07:58;;;;;;;9.30;3.22;;;2.50;99.90;;;;;;4923950;29;20118;-75
2021/12/24 08:10:25;;;;;;;12.52;3.38;;;2.50;99.90;;;;;;4937933;29;20523;-76
2021/12/24 08:12:52;;;;;;;4.25;3.20;;;2.60;99.90;;;;;;4940662;29;20043;-76
2021/12/24 08:15:18;;;;;;;9.13;2.63;;;2.70;99.90;;;;;;4938428;29;20067;-75
2021/12/24 08:17:44;;;;;;;4.43;3.10;;;2.70;99.90;;;;;;4920049;29;20086;-76
2021/12/24 08:20:13;;;;;;;4.72;2.67;;;2.80;99.90;;;;;;4920071;29;20051;-76
2021/12/24 08:22:39;;;;;;;5.78;3.33;;;2.80;99.90;;;;;;4921137;29;20069;-75
2021/12/24 08:25:08;;;;;;;3.17;2.55;;;2.80;99.90;;;;;;4937613;29;20528;-75
2021/12/24 08:27:38;;;;;;;6.65;4.80;;;2.80;99.90;;;;;;4938997;29;20045;-75
2021/12/24 08:30:06;;;;;;;8.45;3.17;;;2.80;99.90;;;;;;4918780;29;20024;-75
2021/12/24 08:32:36;;;;;;;3.45;2.60;;;2.80;99.90;;;;;;4919335;29;20087;-74
2021/12/24 08:35:03;;;;;;;8.43;5.05;;;2.90;99.90;;;;;;4936093;29;20027;-75
2021/12/24 08:37:30;;;;;;;4.63;2.50;;;2.90;99.90;;;;;;4917834;29;20047;-74
2021/12/24 08:39:56;;;;;;;3.70;2.08;;;3.00;99.90;;;;;;4918140;29;20087;-75
2021/12/24 08:42:22;;;;;;;10.23;5.75;;;3.10;99.90;;;;;;4935058;29;20422;-75
2021/12/24 08:44:47;;;;;;;14.13;5.85;;;3.20;99.90;;;;;;4935752;29;20031;-75
2021/12/24 08:47:13;;;;;;;5.75;3.95;;;3.40;99.90;;;;;;4919986;29;20039;-75
2021/12/24 08:49:39;;;;;;;4.75;2.30;;;3.50;99.90;;;;;;4919520;29;20020;-75
2021/12/24 08:52:05;;;;;;;6.13;3.85;;;3.60;99.90;;;;;;4919972;29;20023;-76
2021/12/24 08:54:31;;;;;;;6.30;4.18;;;3.90;99.90;;;;;;4921821;29;20473;-76
2021/12/24 08:56:57;;;;;;;5.22;3.85;;;3.90;99.90;;;;;;4936247;29;20028;-78
2021/12/24 08:59:23;;;;;;;8.48;3.80;;;3.90;99.90;;;;;;4952739;29;20027;-78
2021/12/24 09:01:50;;;;;;;8.13;4.45;;;3.80;99.90;;;;;;4947691;29;20492;-75
2021/12/24 09:04:16;;;;;;;4.82;2.47;;;3.80;99.90;;;;;;4935823;29;20488;-75
2021/12/24 09:06:42;;;;;;;3.05;2.63;;;3.70;99.90;;;;;;4932899;29;20050;-75
2021/12/24 09:09:10;;;;;;;4.55;3.38;;;3.70;99.90;;;;;;4917130;29;20028;-76
2021/12/24 09:11:39;;;;;;;7.65;3.88;;;3.70;99.90;;;;;;4913366;29;20511;-77
2021/12/24 09:14:05;;;;;;;3.75;2.90;;;3.80;99.90;;;;;;4916151;29;20113;-77
2021/12/24 09:16:34;;;;;;;9.80;3.17;;;3.70;99.90;;;;;;4915300;29;20141;-78
2021/12/24 09:19:08;;;;;;;3.22;2.95;;;3.80;99.90;;;;;;4933672;29;20032;-76
2021/12/24 09:21:34;;;;;;;7.90;3.65;;;3.80;99.90;;;;;;4915743;29;20038;-78
2021/12/24 09:24:01;;;;;;;6.60;2.65;;;3.80;99.90;;;;;;4915455;29;20035;-79
2021/12/24 09:26:29;;;;;;;7.50;3.88;;;3.90;99.90;;;;;;4931621;29;20042;-78
2021/12/24 09:28:56;;;;;;;3.33;2.17;;;3.90;99.90;;;;;;4915419;29;20059;-78
2021/12/24 09:31:23;;;;;;;3.55;2.35;;;3.90;99.90;;;;;;4915070;29;20091;-78
2021/12/24 09:33:49;;;;;;;2.80;1.95;;;4.00;99.90;;;;;;4914662;29;20050;-79
2021/12/24 09:36:23;;;;;;;5.32;3.05;;;3.90;99.90;;;;;;4933039;29;20087;-78
2021/12/24 09:38:48;;;;;;;4.78;2.97;;;4.00;99.90;;;;;;4915889;29;20269;-75
2021/12/24 09:41:14;;;;;;;3.38;2.35;;;4.00;99.90;;;;;;4932436;29;20276;-75
2021/12/24 09:43:40;;;;;;;4.18;3.03;;;4.00;99.90;;;;;;4933726;29;20055;-76
2021/12/24 09:46:05;;;;;;;6.95;3.47;;;4.00;99.90;;;;;;4931856;29;20035;-76
2021/12/24 09:48:31;;;;;;;4.60;2.97;;;4.10;99.90;;;;;;4933769;29;20024;-75
2021/12/24 09:50:57;;;;;;;8.00;4.47;;;4.10;99.90;;;;;;4932730;29;20020;-77
2021/12/24 09:53:23;;;;;;;5.60;4.30;;;4.10;99.90;;;;;;4931605;29;20048;-79
2021/12/24 09:55:50;;;;;;;6.60;2.90;;;4.20;99.90;;;;;;4923600;29;20081;-79
2021/12/24 09:58:16;;;;;;;5.30;2.55;;;;;;;;;;4946402;29;20031;-77
2021/12/24 10:00:43;;;;;;;4.80;3.38;;;4.20;99.90;;;;;;4940929;29;20019;-79
2021/12/24 10:03:09;;;;;;;4.60;2.97;;;4.30;99.90;;;;;;4944216;29;20295;-80
2021/12/24 10:05:40;;;;;;;6.75;3.70;;;4.30;99.90;;;;;;4941635;29;20028;-79
2021/12/24 10:08:16;;;;;;;7.88;3.97;;;4.60;99.90;;;;;;4928609;29;20032;-78
2021/12/24 10:10:44;;;;;;;13.95;4.90;;;4.60;99.90;;;;;;4928018;29;20016;-78
2021/12/24 10:13:33;;;;;;;6.75;3.42;;;4.50;99.90;;;;;;4923075;29;20118;-78
2021/12/24 10:16:19;;;;;;;4.20;2.60;;;4.50;99.90;;;;;;4914556;29;20535;-77
2021/12/24 10:18:53;;;;;;;5.15;3.08;;;4.60;99.90;;;;;;4934758;29;20496;-78
2021/12/24 10:21:22;;;;;;;8.05;3.60;;;6.90;99.90;;;;;;4937845;29;20433;-80
2021/12/24 10:23:50;;;;;;;25.13;9.25;;;4.70;99.90;;;;;;4919359;29;20087;-77
2021/12/24 10:26:23;;;;;;;8.43;5.22;;;4.70;99.90;;;;;;4934105;29;20027;-78
2021/12/24 10:28:51;;;;;;;11.50;6.82;;;4.70;99.90;;;;;;4935552;29;20163;-78
2021/12/24 10:31:20;;;;;;;7.13;4.60;;;4.80;99.90;;;;;;4917686;29;20028;-78
2021/12/24 10:34:12;;;;;;;11.95;5.35;;;4.90;99.90;;;;;;4935361;29;20063;-78
2021/12/24 10:36:54;;;;;;;13.57;4.65;;;4.90;99.90;;;;;;4895581;29;20039;-75
2021/12/24 10:39:34;;;;;;;8.13;4.40;;;4.90;99.90;;;;;;4921680;29;20027;-78
2021/12/24 10:42:03;;;;;;;6.43;3.83;;;4.90;99.90;;;;;;4916959;29;20118;-79
2021/12/24 10:44:32;;;;;;;7.47;4.50;;;4.90;99.90;;;;;;4935575;29;20024;-77
2021/12/24 10:46:59;;;;;;;4.88;3.63;;;4.80;99.90;;;;;;4939897;29;20079;-80
2021/12/24 10:54:56;;;;;;;9.52;4.72;;;4.80;99.90;;;;;;4936792;29;20024;-77
2021/12/24 10:57:25;;;;;;;4.57;4.07;;;4.90;99.90;;;;;;4921746;29;20024;-80
2021/12/24 10:59:56;;;;;;;6.05;3.50;;;2.00;99.90;;;;;;4917521;29;20087;-82
2021/12/24 11:02:29;;;;;;;8.05;3.55;;;5.30;99.90;;;;;;4920211;29;20031;-80
2021/12/24 11:04:55;;;;;;;6.90;3.40;;;5.40;99.90;;;;;;4918408;29;20068;-79
2021/12/24 11:07:32;;;;;;;4.57;3.22;;;5.50;99.90;;;;;;4914824;29;20035;-78
2021/12/24 11:10:19;;;;;;;6.95;4.13;;;5.60;99.90;;;;;;4934514;29;20036;-79
2021/12/24 11:12:48;;;;;;;5.15;3.22;;;;;;;;;;4939232;29;20107;-79
2021/12/24 11:15:29;;;;;;;10.80;5.15;;;5.70;99.90;;;;;;4914366;29;20044;-77
2021/12/24 11:18:01;;;;;;;5.95;3.53;;;5.80;99.90;;;;;;4915967;29;20396;-79
2021/12/24 11:20:29;;;;;;;4.93;3.50;;;5.80;99.90;;;;;;4932782;29;20145;-79
2021/12/24 11:23:03;;;;;;;4.70;3.47;;;5.90;99.90;;;;;;4915813;29;20074;-80
2021/12/24 11:25:32;;;;;;;8.43;3.67;;;5.90;99.90;;;;;;4910341;29;20031;-83
2021/12/24 11:27:59;;;;;;;4.00;3.33;;;5.90;99.90;;;;;;4911389;29;20114;-81
2021/12/24 11:30:27;;;;;;;7.68;3.63;;;5.90;99.90;;;;;;4926037;29;20028;-77
2021/12/24 11:32:54;;;;;;;4.57;2.85;;;5.90;99.90;;;;;;4887329;29;1297318;-78
2021/12/24 11:35:21;;;;;;;3.38;3.00;;;5.90;99.90;;;;;;4928561;29;20580;-78
2021/12/24 11:37:48;;;;;;;6.85;4.30;;;5.90;99.90;;;;;;4924188;29;20036;-77
2021/12/24 11:40:17;;;;;;;7.38;4.13;;;6.00;99.90;;;;;;4912483;29;20040;-77
2021/12/24 11:42:46;;;;;;;5.35;4.13;;;6.00;99.90;;;;;;4928091;29;20071;-77
2021/12/24 11:45:13;;;;;;;4.55;2.55;;;5.90;99.90;;;;;;4925572;29;20420;-77
2021/12/24 11:47:39;;;;;;;5.68;3.35;;;6.00;99.90;;;;;;4906803;29;20046;-75
2021/12/24 11:50:06;;;;;;;7.05;3.58;;;6.10;99.90;;;;;;4906950;29;20036;-78
2021/12/24 11:52:32;;;;;;;9.27;3.30;;;6.20;99.90;;;;;;4923091;29;20028;-77
2021/12/24 11:54:59;;;;;;;9.23;3.22;;;6.30;99.90;;;;;;4905826;29;20032;-76
2021/12/24 11:57:25;;;;;;;9.00;3.90;;;6.10;99.90;;;;;;4923222;29;20555;-75
2021/12/24 11:59:51;;;;;;;5.40;3.33;;;6.20;99.90;;;;;;4923648;29;20612;-77
2021/12/24 12:02:45;;;;;;;3.42;2.38;;;6.30;99.90;;;;;;4925751;29;20032;-77
2021/12/24 12:05:22;;;;;;;6.72;4.65;;;6.30;99.90;;;;;;4925470;29;20497;-77
2021/12/24 12:07:50;;;;;;;5.55;2.83;;;6.40;99.90;;;;;;4908534;29;20047;-79
2021/12/24 12:10:49;;;;;;;8.73;5.20;;;6.30;99.90;;;;;;4924966;29;20030;-77
2021/12/24 12:13:40;;;;;;;7.97;3.85;;;6.30;99.90;;;;;;4907412;29;20038;-79
2021/12/24 12:16:18;;;;;;;7.93;4.82;;;6.50;99.90;;;;;;4924913;29;20031;-81
2021/12/24 12:18:48;;;;;;;10.57;5.65;;;6.70;99.90;;;;;;4909255;29;20044;-79
2021/12/24 12:21:20;;;;;;;19.23;9.40;;;6.80;99.90;;;;;;4910266;29;20024;-78
2021/12/24 12:26:35;;;;;;;11.82;4.43;;;6.90;99.90;;;;;;4926711;29;20226;-77
2021/12/24 12:29:32;;;;;;;8.13;5.30;;;6.90;99.90;;;;;;4926873;29;20030;-77
2021/12/24 12:32:12;;;;;;;10.43;4.15;;;7.10;99.90;;;;;;4924728;29;20087;-78
2021/12/24 12:34:38;;;;;;;7.78;4.93;;;7.20;99.90;;;;;;4908263;29;20106;-78
2021/12/24 12:37:23;;;;;;;6.40;3.97;;;7.40;99.90;;;;;;4907766;29;20024;-76
2021/12/24 12:39:54;;;;;;;7.32;4.28;;;7.30;99.90;;;;;;4908019;29;20031;-79
2021/12/24 12:42:24;;;;;;;12.02;5.35;;;7.40;99.90;;;;;;4909694;29;20439;-78
2021/12/24 12:44:55;;;;;;;11.07;5.47;;;7.60;99.90;;;;;;4909207;29;20531;-78
2021/12/24 12:47:28;;;;;;;14.88;5.03;;;7.50;99.90;;;;;;4909330;29;20043;-80
2021/12/24 12:50:17;;;;;;;12.88;5.45;;;7.70;99.90;;;;;;4910977;29;20032;-79
2021/12/24 12:52:43;;;;;;;19.80;6.38;;;7.80;99.90;;;;;;4910198;29;20032;-80
2021/12/24 12:55:33;;;;;;;7.47;4.22;;;7.90;99.90;;;;;;4907736;29;20086;-74
2021/12/24 12:58:19;;;;;;;7.57;5.10;;;8.00;99.90;;;;;;4922455;29;20039;-76
2021/12/24 13:01:03;;;;;;;3.72;2.33;;;8.00;99.90;;;;;;4920737;29;20516;-77
2021/12/24 13:03:29;;;;;;;12.52;3.83;;;7.80;99.90;;;;;;4909139;29;20027;-78
2021/12/24 13:05:59;;;;;;;10.43;4.60;;;7.60;99.90;;;;;;4907920;29;20036;-75
2021/12/24 13:08:27;;;;;;;9.95;4.32;;;7.40;99.90;;;;;;4930660;29;20028;-75
2021/12/24 13:11:06;;;;;;;12.13;6.30;;;7.50;99.90;;;;;;4929847;29;20489;-77
2021/12/24 13:13:44;;;;;;;5.55;3.15;;;7.20;99.90;;;;;;4929858;29;20038;-76
2021/12/24 13:16:16;;;;;;;5.80;3.65;;;7.30;99.90;;;;;;4912448;29;20039;-77
2021/12/24 13:18:42;;;;;;;6.63;4.22;;;7.40;99.90;;;;;;4912943;29;20035;-76
2021/12/24 13:23:53;;;;;;;11.13;4.38;;;7.50;99.90;;;;;;4930658;29;20038;-78
2021/12/24 13:26:21;;;;;;;8.60;5.00;;;7.50;99.90;;;;;;4923910;29;20044;-78
2021/12/24 13:29:17;;;;;;;5.72;3.40;;;7.70;99.90;;;;;;4910244;29;20055;-80
2021/12/24 13:31:57;;;;;;;7.97;4.03;;;7.70;99.90;;;;;;4893321;29;20504;-79
2021/12/24 13:34:23;;;;;;;;;;;7.70;99.90;;;;;;4931443;29;20048;-79
2021/12/24 13:36:49;;;;;;;7.53;3.72;;;7.80;99.90;;;;;;4916386;29;19950;-79
2021/12/24 13:39:20;;;;;;;6.47;3.80;;;7.70;99.90;;;;;;4916499;29;20031;-80
2021/12/24 13:41:47;;;;;;;4.45;3.55;;;7.70;99.90;;;;;;4916629;29;20070;-79
2021/12/24 13:44:29;;;;;;;5.35;3.47;;;7.50;99.90;;;;;;4917764;29;20032;-79
2021/12/24 13:47:40;;;;;;;6.32;3.33;;;7.50;99.90;;;;;;4933047;29;20455;-80
2021/12/24 13:55:38;;;;;;;6.95;3.33;;;7.40;99.90;;;;;;4936581;29;20496;-78
2021/12/24 13:58:06;;;;;;;;;;;7.40;99.90;;;;;;4919177;29;20075;-79
2021/12/24 14:00:34;;;;;;;7.63;3.22;;;7.20;99.90;;;;;;4915766;29;19929;-76
2021/12/24 14:03:02;;;;;;;5.78;3.92;;;7.10;99.90;;;;;;4915820;29;20494;-80
2021/12/24 14:05:28;;;;;;;6.90;3.80;;;7.10;99.90;;;;;;4932852;29;20035;-82
2021/12/24 14:08:10;;;;;;;7.45;4.03;;;7.10;99.90;;;;;;4917174;29;20069;-79
2021/12/24 14:10:36;;;;;;;6.38;4.32;;;7.00;99.90;;;;;;4935093;29;20023;-79
2021/12/24 14:24:15;;;;;;;12.02;5.40;;;6.70;99.90;;;;;;4909036;29;20047;-81
2021/12/24 14:26:54;;;;;;;19.35;8.52;;;6.70;99.90;;;;;;4936491;29;20075;-83
2021/12/24 14:29:36;;;;;;;5.53;2.78;;;6.70;99.90;;;;;;4917272;29;20031;-79
2021/12/24 14:32:09;;;;;;;5.43;3.90;;;6.70;99.90;;;;;;4936554;29;20324;-78
2021/12/24 14:34:52;;;;;;;7.22;3.00;;;6.70;99.90;;;;;;4935165;29;20098;-80
2021/12/24 14:37:24;;;;;;;5.15;3.28;;;6.70;99.90;;;;;;4936186;29;20028;-80
2021/12/24 14:39:57;;;;;;;4.50;3.03;;;6.70;99.90;;;;;;4933102;29;20024;-79
2021/12/24 14:42:24;;;;;;;4.18;2.80;;;6.60;99.90;;;;;;4917426;29;20555;-81
2021/12/24 14:44:53;;;;;;;63.72;26.05;;;6.50;99.90;;;;;;4918160;29;20035;-80
2021/12/24 14:47:29;;;;;;;12.32;6.43;;;6.50;99.90;;;;;;4932385;29;20540;-78
2021/12/24 14:50:01;;;;;;;9.60;5.25;;;6.50;99.90;;;;;;4919037;29;20078;-81
2021/12/24 14:52:27;;;;;;;17.95;8.00;;;6.40;99.90;;;;;;4918513;29;20035;-79
2021/12/24 14:55:16;;;;;;;11.75;6.68;;;6.40;99.90;;;;;;4936544;29;20094;-78
2021/12/24 14:57:56;;;;;;;16.15;8.98;;;6.40;99.90;;;;;;4933590;29;20030;-79
2021/12/24 15:00:45;;;;;;;39.78;13.85;;;6.30;99.90;;;;;;4935355;29;20067;-76
2021/12/24 15:03:14;;;;;;;7.32;4.35;;;6.30;99.90;;;;;;4944022;29;20116;-78
2021/12/24 15:05:50;;;;;;;4.78;3.67;;;6.20;99.90;;;;;;4926384;29;20260;-78
2021/12/24 15:08:25;;;;;;;10.70;3.65;;;6.00;99.90;;;;;;4925846;29;20336;-77
2021/12/24 15:11:09;;;;;;;5.75;3.60;;;6.00;99.90;;;;;;4928976;29;20028;-77
2021/12/24 15:13:43;;;;;;;8.18;3.55;;;6.00;99.90;;;;;;4917162;29;20028;-79
2021/12/24 15:16:09;;;;;;;4.43;3.33;;;5.80;99.90;;;;;;4941986;29;20043;-78
2021/12/24 15:18:35;;;;;;;4.80;3.60;;;5.80;99.90;;;;;;4945814;29;20027;-75